sensor_id;sensor_type;location;lat;lon;timestamp;temperature;humidity
35633;DHT22;21754;48.216;-1.628;2023-02-15T00:06:24;11.20;99.90
35633;DHT22;21754;48.216;-1.628;2023-02-15T00:08:50;9.30;99.90
35633;DHT22;21754;48.216;-1.628;2023-02-15T00:11:17;9.30;99.90
35633;DHT22;21754;48.216;-1.628;2023-02-15T00:14:04;9.30;99.90
35633;DHT22;21754;48.216;-1.628;2023-02-15T00:16:30;9.30;99.90
35633;DHT22;21754;48.216;-1.628;2023-02-15T00:18:55;9.30;99.90
35633;DHT22;21754;48.216;-1.628;2023-02-15T00:21:21;9.30;99.90
35633;DHT22;21754;48.216;-1.628;2023-02-15T00:23:47;9.20;99.90
35633;DHT22;21754;48.216;-1.628;2023-02-15T00:26:12;9.20;99.90
35633;DHT22;21754;48.216;-1.628;2023-02-15T00:28:38;9.30;99.90
35633;DHT22;21754;48.216;-1.628;2023-02-15T00:31:08;9.30;99.90
35633;DHT22;21754;48.216;-1.628;2023-02-15T00:33:34;9.30;99.90
35633;DHT22;21754;48.216;-1.628;2023-02-15T00:36:00;9.30;99.90
35633;DHT22;21754;48.216;-1.628;2023-02-15T00:38:30;9.30;99.90
35633;DHT22;21754;48.216;-1.628;2023-02-15T00:41:01;9.30;99.90
35633;DHT22;21754;48.216;-1.628;2023-02-15T00:43:27;9.30;99.90
35633;DHT22;21754;48.216;-1.628;2023-02-15T00:45:54;9.40;99.90
35633;DHT22;21754;48.216;-1.628;2023-02-15T00:48:20;9.40;99.90
35633;DHT22;21754;48.216;-1.628;2023-02-15T00:50:48;9.40;99.90
35633;DHT22;21754;48.216;-1.628;2023-02-15T00:53:14;9.40;99.90
35633;DHT22;21754;48.216;-1.628;2023-02-15T00:55:39;9.40;99.90
35633;DHT22;21754;48.216;-1.628;2023-02-15T00:58:06;9.40;99.90
35633;DHT22;21754;48.216;-1.628;2023-02-15T01:00:33;9.30;99.90
35633;DHT22;21754;48.216;-1.628;2023-02-15T01:02:58;9.30;99.90
35633;DHT22;21754;48.216;-1.628;2023-02-15T01:05:24;9.30;99.90
35633;DHT22;21754;48.216;-1.628;2023-02-15T01:07:50;9.30;99.90
35633;DHT22;21754;48.216;-1.628;2023-02-15T01:10:15;9.30;99.90
35633;DHT22;21754;48.216;-1.628;2023-02-15T01:12:41;9.30;99.90
35633;DHT22;21754;48.216;-1.628;2023-02-15T01:15:08;9.30;99.90
35633;DHT22;21754;48.216;-1.628;2023-02-15T01:17:33;9.30;99.90
35633;DHT22;21754;48.216;-1.628;2023-02-15T11:53:45;9.30;99.90
35633;DHT22;21754;48.216;-1.628;2023-02-15T11:56:20;12.90;99.90
35633;DHT22;21754;48.216;-1.628;2023-02-15T11:58:57;13.00;99.90
35633;DHT22;21754;48.216;-1.628;2023-02-15T12:01:36;13.00;99.90
35633;DHT22;21754;48.216;-1.628;2023-02-15T12:04:20;13.10;99.90
35633;DHT22;21754;48.216;-1.628;2023-02-15T12:07:04;13.10;99.90
35633;DHT22;21754;48.216;-1.628;2023-02-15T12:12:29;13.20;99.90
35633;DHT22;21754;48.216;-1.628;2023-02-15T12:15:06;13.30;99.90
35633;DHT22;21754;48.216;-1.628;2023-02-15T14:19:38;15.40;99.90
35633;DHT22;21754;48.216;-1.628;2023-02-15T14:22:22;15.50;99.90
35633;DHT22;21754;48.216;-1.628;2023-02-15T14:30:49;15.70;99.90
35633;DHT22;21754;48.216;-1.628;2023-02-15T14:33:25;15.80;99.90
35633;DHT22;21754;48.216;-1.628;2023-02-15T14:35:54;15.80;99.90
35633;DHT22;21754;48.216;-1.628;2023-02-15T14:41:35;15.90;99.90
35633;DHT22;21754;48.216;-1.628;2023-02-15T14:44:51;15.90;99.90
35633;DHT22;21754;48.216;-1.628;2023-02-15T14:47:02;16.00;99.90
35633;DHT22;21754;48.216;-1.628;2023-02-15T15:05:08;16.20;99.90
35633;DHT22;21754;48.216;-1.628;2023-02-15T15:07:44;16.20;99.90
35633;DHT22;21754;48.216;-1.628;2023-02-15T15:12:45;16.20;99.90
35633;DHT22;21754;48.216;-1.628;2023-02-15T15:15:33;16.20;99.90
35633;DHT22;21754;48.216;-1.628;2023-02-15T15:18:07;16.20;99.90
